X  Κλείσε Στοιχεία αεροπορικών μετεωρολογικών δεδομένων METAR     LGRX Patras Araxos Agamemnon Airport
Θερμοκρασία
25°C Θερμοκρασία
21°C Σημείο δρόσου
79% Υγρασία



Άνεμος
14 KM/H
9 MPH
4 M/S
8 KTS



210°
NNΔ
Τρέχουσες Συνθήκες

Μερικώς Νεφελώδης Μερικώς Νεφελώδης
Πίεση 1006.92 (hPa) - 29.73 (inHg)
Ορατότητα 6.2 (μίλια) - 10 (km)
Aεροδρόμιο
Κωδικός Αεροδρομίου LGRX

Τοποθεσία: Patras Araxos Agamemnon Airport
Απόσταση: 108 (km)

Metar:
LGRX 271620Z 21008KT 9999 FEW015 BKN020 25/21 Q1007

ώρα: 27-09-2022 19:20 EEST